James M Cox Dayton International Airport
KDAY : now visible

Airfield :











YOU CAN JOIN US ON...

 
LOGIN :

Register | Disclaimer

   EN    FR    IT 

 









Legend :    VFR   Marginal VFR   IFR   Intensive IFR   Very Intensive IFR
Visi :
Ceiling :
>= 8 km
>= 3000ft
5 to 8 km
1000 to 3000 ft
1500m to 5 km
500 to 1000 ft
800 to 1500m
200 to 500 ft
< 800m
< 200 ft
Symbols :   Thunderstorms  Fog  Heavy snow  Heavy precipitations  Wind > 20 kt







- Airport Elevation : 1009 ft
- IATA code : DAY


KDAY - James M Cox Dayton International

CURRENT METAR :
  • 201356Z 11013KT 1SM R06L/5500VP6000FT -RA BR OVC006 02/01 A3002 RMK AO2 TWR VIS 2 1/2 SLP175 RAB46 P0000 I1002 T00170006 $

EXPIRED METARs :
  • 201349Z 11013KT 1SM R06L/P6000FT -RA BR OVC007 02/00 A3002 RMK AO2 TWR VIS 2 1/2 RAB46 P0000 I1002 T00170000 $
  • 201256Z 10014KT 6SM BR OVC005 01/00 A3001 RMK AO2 RAB31E44FZRAE31 SLP172 P0002 I1005 T00110000 $
  • 201237Z 09012KT 4SM -RA BR OVC005 01/M01 A3001 RMK AO2 RAB31FZRAE31 PRESFR P0002 I1000 T00061006 $
  • 201156Z 07014KT 3SM -FZRA BR OVC005 01/M01 A3004 RMK AO2 SNE15 PRESFR SLP180 4/004 P0018 60107 70107 I1005 I6006 T00061006 10006 21017 58044 $

TAF KDAY
Valid from the 20 at 13:00 until the 21 at 12:00 UTC


201235Z 2013/2112 11012G18KT P6SM VCSH OVC004
FM201700 15012G18KT P6SM -RA OVC004
FM202100 17012KT 4SM -RA BR OVC004 WS020/21045KT
FM210000 21012G18KT 2SM -RA BR OVC003 WS020/21045KT
FM210200 25014G20KT 2SM -DZ BR OVC003
FM210700 26012G18KT 5SM BR OVC004
KZID FIR / North America



MET'MAP, your aeronautical weather chart ! - Copyright ORBIFLY December 2007 - Disclaimer

ORBIFLY MET'MAP TEAM :

Programming & Development : Alexandra Zaïnal
Concept & Development : Baudouin d'Aumeries
Co-Development & Prog : Marc-Olivier Méhu
Technical & hardware support : Manuel Goepfert

Contact : metmap@orbifly.com




SOURCES & CREDITS :

   NOAA       Earth
Advisory